Time;durP1;ratioP1;P1;durP2;ratioP2;P2;SDS_P1;SDS_P2;PMS_P1;PMS_P2;Temp;Humidity;BMP_temperature;BMP_pressure;BME280_temperature;BME280_humidity;BME280_pressure;Samples;Min_cycle;Max_cycle;Signal;HPM_P1;HPM_P2
2023/01/28 00:00:35;;;;;;;25.42;14.38;;;3.90;99.90;;;;;;5023314;28;20087;-95
2023/01/28 00:03:01;;;;;;;26.85;14.60;;;3.80;99.90;;;;;;5021282;28;20025;-94
2023/01/28 00:05:28;;;;;;;27.20;14.27;;;3.80;99.90;;;;;;5041255;28;20048;-95
2023/01/28 00:07:56;;;;;;;25.75;14.13;;;3.80;99.90;;;;;;5023226;28;20020;-95
2023/01/28 00:10:21;;;;;;;25.75;14.30;;;3.80;99.90;;;;;;5022724;28;20033;-95
2023/01/28 00:12:47;;;;;;;24.02;13.43;;;3.80;99.90;;;;;;5022962;28;20505;-95
2023/01/28 00:15:13;;;;;;;27.95;13.57;;;3.80;99.90;;;;;;5022872;28;20032;-95
2023/01/28 00:17:39;;;;;;;28.38;14.00;;;3.70;99.90;;;;;;5023146;28;20021;-93
2023/01/28 00:20:05;;;;;;;29.85;14.70;;;3.70;99.90;;;;;;5023127;28;20582;-93
2023/01/28 00:22:31;;;;;;;23.08;12.32;;;3.70;99.90;;;;;;5022697;28;20021;-95
2023/01/28 00:24:57;;;;;;;26.25;13.82;;;3.70;99.90;;;;;;5020049;28;20048;-92
2023/01/28 00:27:25;;;;;;;23.88;13.65;;;3.70;99.90;;;;;;5022890;28;20026;-91
2023/01/28 00:29:52;;;;;;;26.52;13.88;;;3.70;99.90;;;;;;5023133;28;20037;-92
2023/01/28 00:32:18;;;;;;;25.55;14.85;;;3.70;99.90;;;;;;5036809;28;20034;-93
2023/01/28 00:34:44;;;;;;;23.85;13.70;;;3.70;99.90;;;;;;5022930;28;20034;-94
2023/01/28 00:37:09;;;;;;;26.15;15.35;;;3.70;99.90;;;;;;5038918;28;20079;-93
2023/01/28 00:39:35;;;;;;;27.52;14.38;;;3.70;99.90;;;;;;5022851;28;20029;-93
2023/01/28 00:42:01;;;;;;;24.80;13.60;;;3.60;99.90;;;;;;5022437;28;20024;-93
2023/01/28 00:44:27;;;;;;;28.25;14.98;;;3.70;99.90;;;;;;5039130;28;20025;-94
2023/01/28 00:46:52;;;;;;;26.88;15.50;;;3.70;99.90;;;;;;5022553;28;20018;-93
2023/01/28 00:49:18;;;;;;;26.90;15.18;;;3.70;99.90;;;;;;5022746;28;20021;-93
2023/01/28 00:51:44;;;;;;;25.55;13.15;;;3.60;99.90;;;;;;5024314;28;20021;-92
2023/01/28 00:54:12;;;;;;;23.55;12.95;;;3.60;99.90;;;;;;5022604;28;20120;-94
2023/01/28 00:56:40;;;;;;;23.25;13.13;;;3.60;99.90;;;;;;5035722;28;20028;-93
2023/01/28 00:59:05;;;;;;;25.85;14.27;;;3.60;99.90;;;;;;5022200;28;20447;-94
2023/01/28 01:01:31;;;;;;;26.77;14.05;;;3.60;99.90;;;;;;5022963;28;20021;-94
2023/01/28 01:04:01;;;;;;;22.30;13.52;;;3.70;99.90;;;;;;5024873;28;20513;-93
2023/01/28 01:06:30;;;;;;;19.20;10.80;;;3.70;99.90;;;;;;5042235;28;20091;-95
2023/01/28 01:08:56;;;;;;;27.33;14.82;;;3.70;99.90;;;;;;5025913;28;20022;-95
2023/01/28 01:11:22;;;;;;;24.13;14.38;;;3.70;99.90;;;;;;5027879;28;20030;-93
2023/01/28 01:13:54;;;;;;;25.35;15.13;;;3.70;99.90;;;;;;5026594;28;20018;-96
2023/01/28 01:16:20;;;;;;;22.35;12.50;;;3.70;99.90;;;;;;5025715;28;20093;-93
2023/01/28 01:18:46;;;;;;;23.33;13.95;;;3.70;99.90;;;;;;5025614;28;20076;-95
2023/01/28 01:21:16;;;;;;;21.75;13.98;;;3.70;99.90;;;;;;5025412;28;20029;-95
2023/01/28 01:23:42;;;;;;;20.83;12.27;;;3.70;99.90;;;;;;5025007;28;20114;-96
2023/01/28 01:26:08;;;;;;;23.60;12.85;;;3.80;99.90;;;;;;5006382;28;20048;-94
2023/01/28 01:28:34;;;;;;;25.77;13.95;;;3.70;99.90;;;;;;5006756;28;20026;-95
2023/01/28 01:31:02;;;;;;;26.20;13.35;;;3.80;99.90;;;;;;5006432;28;20097;-94
2023/01/28 01:33:29;;;;;;;21.40;12.80;;;3.80;99.90;;;;;;5006510;28;20383;-94
2023/01/28 01:35:55;;;;;;;22.98;13.63;;;3.80;99.90;;;;;;5006349;28;20028;-95
2023/01/28 01:38:22;;;;;;;18.80;11.07;;;3.80;99.90;;;;;;5006297;28;20034;-94
2023/01/28 01:40:48;;;;;;;25.20;14.88;;;3.70;99.90;;;;;;5006455;28;20026;-94
2023/01/28 01:43:21;;;;;;;21.20;12.75;;;3.70;99.90;;;;;;5006709;28;20105;-92
2023/01/28 01:45:55;;;;;;;22.80;13.38;;;3.70;99.90;;;;;;5006082;28;20185;-94
2023/01/28 01:48:30;;;;;;;25.58;14.00;;;3.70;99.90;;;;;;5005957;28;20026;-94
2023/01/28 01:51:01;;;;;;;19.10;11.52;;;3.70;99.90;;;;;;5006453;28;20030;-95
2023/01/28 01:53:29;;;;;;;25.33;15.00;;;3.70;99.90;;;;;;5024529;28;20150;-95
2023/01/28 01:55:58;;;;;;;28.23;15.38;;;3.70;99.90;;;;;;5007977;28;20026;-94
2023/01/28 01:58:28;;;;;;;22.02;12.63;;;3.60;99.90;;;;;;5008041;28;20060;-94
2023/01/28 02:00:54;;;;;;;28.10;15.10;;;3.60;99.90;;;;;;5023291;28;20105;-93
2023/01/28 02:03:27;;;;;;;33.05;15.82;;;3.70;99.90;;;;;;5005625;28;20112;-95
2023/01/28 02:05:53;;;;;;;26.35;13.48;;;3.60;99.90;;;;;;5005653;28;20250;-94
2023/01/28 02:08:19;;;;;;;24.75;13.68;;;3.60;99.90;;;;;;5005146;28;20037;-94
2023/01/28 02:10:51;;;;;;;27.20;13.35;;;3.60;99.90;;;;;;5005004;28;20125;-92
2023/01/28 02:13:20;;;;;;;26.85;13.70;;;3.60;99.90;;;;;;5004209;28;20022;-94
2023/01/28 02:15:47;;;;;;;32.10;16.25;;;3.70;99.90;;;;;;5004967;28;20057;-94
2023/01/28 02:18:13;;;;;;;36.75;17.35;;;3.70;99.90;;;;;;5005013;28;20112;-94
2023/01/28 02:20:54;;;;;;;44.50;20.65;;;3.70;99.90;;;;;;5004899;28;20490;-94
2023/01/28 02:23:25;;;;;;;45.28;20.63;;;3.70;99.90;;;;;;5004762;28;20026;-93
2023/01/28 02:26:09;;;;;;;43.58;18.58;;;3.60;99.90;;;;;;5019552;28;20054;-93
2023/01/28 02:28:58;;;;;;;34.03;15.40;;;3.60;99.90;;;;;;5021572;28;20113;-93
2023/01/28 02:31:33;;;;;;;41.78;19.08;;;3.60;99.90;;;;;;5024201;28;20051;-92
2023/01/28 02:34:07;;;;;;;40.53;18.55;;;3.60;99.90;;;;;;5024549;28;20021;-94
2023/01/28 02:37:06;;;;;;;38.50;17.60;;;3.60;99.90;;;;;;5024399;28;20021;-94
2023/01/28 02:39:39;;;;;;;27.92;14.20;;;3.60;99.90;;;;;;5004474;28;20497;-94
2023/01/28 02:42:09;;;;;;;30.83;14.45;;;3.50;99.90;;;;;;5023931;28;20021;-93
2023/01/28 02:44:35;;;;;;;34.22;17.02;;;3.50;99.90;;;;;;5024222;28;20128;-92
2023/01/28 02:49:54;;;;;;;41.58;17.33;;;3.40;99.90;;;;;;5042199;28;20040;-93
2023/01/28 02:55:21;;;;;;;32.25;13.35;;;3.40;99.90;;;;;;5053471;28;20097;-92
2023/01/28 02:58:09;;;;;;;33.25;15.70;;;3.40;99.90;;;;;;5027343;28;20025;-92
2023/01/28 03:01:06;;;;;;;23.75;12.48;;;3.40;99.90;;;;;;5016415;28;20033;-94
2023/01/28 03:03:51;;;;;;;34.50;13.95;;;3.30;99.90;;;;;;5023451;28;20552;-94
2023/01/28 03:06:24;;;;;;;29.15;14.13;;;3.30;99.90;;;;;;5023583;28;20041;-92
2023/01/28 03:36:59;;;;;;;25.52;12.30;;;3.00;99.90;;;;;;5040783;28;20036;-92
2023/01/28 03:39:27;;;;;;;24.25;11.63;;;2.90;99.90;;;;;;5025637;28;20048;-93
2023/01/28 03:42:05;;;;;;;19.92;11.02;;;2.90;99.90;;;;;;5030377;28;20017;-95
2023/01/28 03:47:21;;;;;;;22.33;11.15;;;2.80;99.90;;;;;;5039240;28;20036;-94
2023/01/28 03:49:50;;;;;;;26.25;11.98;;;2.80;99.90;;;;;;5029044;28;20103;-92
2023/01/28 03:52:18;;;;;;;23.75;12.77;;;2.80;99.90;;;;;;5024758;28;20076;-92
2023/01/28 03:54:48;;;;;;;22.10;10.98;;;2.80;99.90;;;;;;5050854;28;20026;-94
2023/01/28 03:57:15;;;;;;;23.20;10.93;;;2.80;99.90;;;;;;5029836;28;20032;-94
2023/01/28 03:59:41;;;;;;;19.77;10.60;;;2.80;99.90;;;;;;5039294;28;20410;-95
2023/01/28 04:02:07;;;;;;;20.05;10.35;;;2.70;99.90;;;;;;5029258;28;20031;-93
2023/01/28 04:04:33;;;;;;;18.55;10.25;;;2.70;99.90;;;;;;5034873;28;20017;-94
2023/01/28 04:06:59;;;;;;;20.40;10.23;;;2.60;99.90;;;;;;5013719;28;20044;-93
2023/01/28 04:09:25;;;;;;;19.65;10.27;;;2.60;99.90;;;;;;5030946;28;20029;-94
2023/01/28 04:11:50;;;;;;;19.52;10.52;;;2.60;99.90;;;;;;5033611;28;20017;-92
2023/01/28 04:14:17;;;;;;;21.10;10.30;;;2.50;99.90;;;;;;5032535;28;20070;-94
2023/01/28 04:16:43;;;;;;;20.70;10.43;;;2.50;99.90;;;;;;5034263;28;20033;-94
2023/01/28 04:19:11;;;;;;;22.73;10.77;;;2.50;99.90;;;;;;5033931;28;20036;-95
2023/01/28 04:21:37;;;;;;;29.27;12.35;;;2.50;99.90;;;;;;5033328;28;20044;-95
2023/01/28 04:24:03;;;;;;;20.63;9.57;;;2.50;99.90;;;;;;5031171;28;20042;-94
2023/01/28 04:26:28;;;;;;;19.00;9.68;;;2.50;99.90;;;;;;5022013;28;20091;-94
2023/01/28 04:28:54;;;;;;;21.60;10.27;;;2.40;99.90;;;;;;5022275;28;20028;-94
2023/01/28 04:31:20;;;;;;;17.08;9.73;;;2.50;99.90;;;;;;5022118;28;20037;-95
2023/01/28 04:33:45;;;;;;;20.42;10.32;;;2.50;99.90;;;;;;5021989;28;20014;-95
2023/01/28 04:36:11;;;;;;;23.50;10.63;;;2.40;99.90;;;;;;5022775;28;20040;-94
2023/01/28 04:38:37;;;;;;;19.58;9.18;;;2.50;99.90;;;;;;5026789;28;20049;-94
2023/01/28 04:41:02;;;;;;;23.50;10.55;;;2.50;99.90;;;;;;5026093;28;20034;-92
2023/01/28 04:43:28;;;;;;;19.23;10.30;;;2.40;99.90;;;;;;5026280;28;20072;-91
2023/01/28 04:45:53;;;;;;;17.88;9.35;;;2.40;99.90;;;;;;5025937;28;20046;-93
2023/01/28 04:48:19;;;;;;;20.75;9.85;;;2.30;99.90;;;;;;5026362;28;20119;-92
2023/01/28 04:50:45;;;;;;;20.40;10.80;;;2.30;99.90;;;;;;5026093;28;20032;-92
2023/01/28 04:53:11;;;;;;;20.55;9.43;;;2.30;99.90;;;;;;5025795;28;20038;-93
2023/01/28 04:55:37;;;;;;;20.20;10.85;;;2.30;99.90;;;;;;5026198;28;20063;-93
2023/01/28 04:58:02;;;;;;;18.65;10.30;;;2.30;99.90;;;;;;5026428;28;20071;-92
2023/01/28 05:00:29;;;;;;;19.48;9.85;;;2.30;99.90;;;;;;5026878;28;20120;-95
2023/01/28 05:02:55;;;;;;;21.42;11.60;;;2.30;99.90;;;;;;5029693;28;20021;-92
2023/01/28 05:05:20;;;;;;;27.02;11.20;;;2.20;99.90;;;;;;5043159;28;20041;-92
2023/01/28 05:07:54;;;;;;;22.95;10.82;;;2.20;99.90;;;;;;5038631;28;20036;-92
2023/01/28 05:10:21;;;;;;;19.13;10.52;;;2.20;99.90;;;;;;5029271;28;20491;-93
2023/01/28 05:12:47;;;;;;;19.80;10.55;;;2.20;99.90;;;;;;5025968;28;20089;-93
2023/01/28 05:15:14;;;;;;;23.60;10.07;;;2.20;99.90;;;;;;5025622;28;20033;-93
2023/01/28 05:17:41;;;;;;;19.25;10.55;;;2.20;99.90;;;;;;5025772;28;20022;-94
2023/01/28 05:20:08;;;;;;;16.80;8.45;;;2.20;99.90;;;;;;5025638;28;20029;-93
2023/01/28 05:22:34;;;;;;;16.13;6.00;;;2.20;99.90;;;;;;5025647;28;20552;-92
2023/01/28 05:25:00;;;;;;;11.70;5.63;;;2.30;99.90;;;;;;5030218;28;20080;-94
2023/01/28 05:27:26;;;;;;;12.40;6.40;;;2.30;99.90;;;;;;5004769;28;20050;-93
2023/01/28 05:29:51;;;;;;;17.40;5.70;;;2.40;99.90;;;;;;5005332;28;20084;-92
2023/01/28 05:32:17;;;;;;;11.43;5.60;;;2.50;99.90;;;;;;5005488;28;20026;-94
2023/01/28 05:34:45;;;;;;;10.48;5.82;;;2.50;99.90;;;;;;5022572;28;20022;-94
2023/01/28 05:37:11;;;;;;;13.65;6.13;;;2.60;99.90;;;;;;5005031;28;20101;-93
2023/01/28 05:39:37;;;;;;;16.42;6.00;;;2.60;99.90;;;;;;5005485;28;20050;-95
2023/01/28 05:42:03;;;;;;;11.30;5.85;;;2.60;99.90;;;;;;5005289;28;20033;-93
2023/01/28 05:44:28;;;;;;;13.63;6.90;;;2.60;99.90;;;;;;5005180;28;20037;-93
2023/01/28 05:46:54;;;;;;;16.23;6.82;;;2.70;99.90;;;;;;5004927;28;20073;-94
2023/01/28 05:49:19;;;;;;;15.10;7.80;;;2.70;99.90;;;;;;5003998;28;20026;-94
2023/01/28 05:51:47;;;;;;;13.50;6.82;;;2.70;99.90;;;;;;5004779;28;20025;-94
2023/01/28 05:54:12;;;;;;;15.52;7.15;;;2.80;99.90;;;;;;5005241;28;20029;-94
2023/01/28 05:56:39;;;;;;;20.58;8.90;;;2.80;99.90;;;;;;5004875;28;20061;-95
2023/01/28 05:59:05;;;;;;;19.17;8.80;;;2.90;99.90;;;;;;5004911;28;20054;-94
2023/01/28 06:01:31;;;;;;;18.85;7.93;;;2.90;99.90;;;;;;5004526;28;20037;-94
2023/01/28 06:03:58;;;;;;;17.05;7.95;;;3.00;99.90;;;;;;5004746;28;20498;-94
2023/01/28 06:06:23;;;;;;;13.82;7.95;;;3.00;99.90;;;;;;5004619;28;20053;-95
2023/01/28 06:08:49;;;;;;;19.02;9.27;;;3.00;99.90;;;;;;5005361;28;20100;-95
2023/01/28 06:11:15;;;;;;;20.58;9.88;;;3.10;99.90;;;;;;5005405;28;20121;-95
2023/01/28 06:13:40;;;;;;;27.38;13.23;;;3.10;99.90;;;;;;5006594;28;20034;-94
2023/01/28 06:16:07;;;;;;;21.05;11.75;;;3.10;99.90;;;;;;5023205;28;20030;-94
2023/01/28 06:18:33;;;;;;;19.08;10.75;;;3.10;99.90;;;;;;5005116;28;20057;-95
2023/01/28 06:20:59;;;;;;;22.67;10.98;;;3.10;99.90;;;;;;5024613;28;20034;-94
2023/01/28 06:23:25;;;;;;;28.83;13.88;;;3.20;99.90;;;;;;5014234;28;20040;-94
2023/01/28 06:25:55;;;;;;;27.63;12.93;;;3.10;99.90;;;;;;5017425;28;20070;-94
2023/01/28 06:28:21;;;;;;;23.27;11.82;;;3.20;99.90;;;;;;5024419;28;20031;-94
2023/01/28 06:30:48;;;;;;;21.73;12.48;;;3.20;99.90;;;;;;5024077;28;20083;-94
2023/01/28 06:33:14;;;;;;;18.00;10.85;;;3.20;99.90;;;;;;5024532;28;20402;-94
2023/01/28 06:35:40;;;;;;;23.73;13.13;;;3.20;99.90;;;;;;5025424;28;20030;-95
2023/01/28 06:38:06;;;;;;;24.27;13.02;;;3.30;99.90;;;;;;5024102;28;20028;-94
2023/01/28 06:40:31;;;;;;;21.40;11.23;;;3.30;99.90;;;;;;5024035;28;20113;-95
2023/01/28 06:42:57;;;;;;;20.30;10.98;;;3.30;99.90;;;;;;5023777;28;20061;-95
2023/01/28 06:45:23;;;;;;;25.83;11.38;;;3.40;99.90;;;;;;5023280;28;20029;-95
2023/01/28 06:47:48;;;;;;;21.45;10.95;;;3.40;99.90;;;;;;5023461;28;20036;-94
2023/01/28 06:50:14;;;;;;;19.15;10.18;;;3.50;99.90;;;;;;5023552;28;20028;-94
2023/01/28 06:52:40;;;;;;;19.60;10.25;;;3.40;99.90;;;;;;5023297;28;20025;-92
2023/01/28 06:55:06;;;;;;;18.00;9.70;;;3.50;99.90;;;;;;5023986;28;20029;-93
2023/01/28 06:57:32;;;;;;;17.77;9.88;;;3.50;99.90;;;;;;5007241;28;20030;-93
2023/01/28 06:59:58;;;;;;;20.52;9.05;;;3.50;99.90;;;;;;5022998;28;20104;-93
2023/01/28 07:02:24;;;;;;;17.80;8.90;;;3.50;99.90;;;;;;5022822;28;20021;-94
2023/01/28 07:04:49;;;;;;;22.52;8.23;;;3.50;99.90;;;;;;5040694;28;20086;-94
2023/01/28 07:07:15;;;;;;;18.50;9.32;;;3.40;99.90;;;;;;5023819;28;20152;-93
2023/01/28 07:09:41;;;;;;;16.10;8.77;;;3.40;99.90;;;;;;5007584;28;20026;-94
2023/01/28 07:12:07;;;;;;;14.20;7.90;;;3.40;99.90;;;;;;5024962;28;20514;-93
2023/01/28 07:14:33;;;;;;;17.75;8.30;;;3.40;99.90;;;;;;5026891;28;20017;-93
2023/01/28 07:16:59;;;;;;;23.20;8.82;;;3.40;99.90;;;;;;5029394;28;20021;-93
2023/01/28 07:19:24;;;;;;;19.02;8.52;;;3.30;99.90;;;;;;5010390;28;20387;-95
2023/01/28 07:21:50;;;;;;;21.52;8.40;;;3.30;99.90;;;;;;5024632;28;20030;-96
2023/01/28 07:24:17;;;;;;;16.48;8.25;;;3.20;99.90;;;;;;5044944;28;20052;-94
2023/01/28 07:26:43;;;;;;;18.42;9.30;;;3.20;99.90;;;;;;5010738;28;20107;-93
2023/01/28 07:29:09;;;;;;;18.15;8.25;;;3.20;99.90;;;;;;5009774;28;20097;-93
2023/01/28 07:31:34;;;;;;;17.73;8.43;;;3.20;99.90;;;;;;5027141;28;20026;-93
2023/01/28 07:34:00;;;;;;;17.05;8.35;;;3.20;99.90;;;;;;5027119;28;20022;-94
2023/01/28 07:36:26;;;;;;;23.98;9.88;;;3.10;99.90;;;;;;5025241;28;20026;-94
2023/01/28 07:38:51;;;;;;;18.23;9.05;;;3.20;99.90;;;;;;5043594;28;20085;-92
2023/01/28 07:41:17;;;;;;;23.45;10.35;;;3.20;99.90;;;;;;5041818;28;20063;-93
2023/01/28 07:43:43;;;;;;;18.08;9.40;;;3.20;99.90;;;;;;5043630;28;20033;-94
2023/01/28 07:46:09;;;;;;;18.98;9.52;;;3.20;99.90;;;;;;5043313;28;20101;-94
2023/01/28 07:48:34;;;;;;;22.02;9.52;;;3.20;99.90;;;;;;5041499;28;20522;-93
2023/01/28 07:51:00;;;;;;;22.45;10.05;;;3.10;99.90;;;;;;5022869;28;20117;-93
2023/01/28 07:53:26;;;;;;;25.95;11.02;;;3.10;99.90;;;;;;5027469;28;20013;-93
2023/01/28 07:56:01;;;;;;;22.58;9.55;;;3.10;99.90;;;;;;5025469;28;20094;-94
2023/01/28 08:02:01;;;;;;;23.65;11.77;;;3.10;99.90;;;;;;4967222;28;20031;-94
2023/01/28 08:04:29;;;;;;;23.52;10.35;;;3.10;99.90;;;;;;4947654;29;20025;-94
2023/01/28 08:06:55;;;;;;;22.80;10.90;;;3.10;99.90;;;;;;4962984;28;20062;-93
2023/01/28 08:09:21;;;;;;;25.42;11.02;;;3.10;99.90;;;;;;4964064;28;20047;-93
2023/01/28 08:11:47;;;;;;;22.98;11.20;;;3.10;99.90;;;;;;4967336;28;20035;-94
2023/01/28 08:14:13;;;;;;;21.42;9.25;;;3.00;99.90;;;;;;4964197;28;20528;-95
2023/01/28 08:16:38;;;;;;;25.33;10.40;;;3.00;99.90;;;;;;4969174;28;20027;-95
2023/01/28 08:19:04;;;;;;;15.27;8.68;;;3.10;99.90;;;;;;4964559;28;20070;-95
2023/01/28 08:21:30;;;;;;;18.30;9.25;;;3.10;99.90;;;;;;4966081;29;20078;-94
2023/01/28 08:23:55;;;;;;;12.45;7.70;;;3.20;99.90;;;;;;4949329;29;20118;-95
2023/01/28 08:26:21;;;;;;;25.75;9.50;;;3.20;99.90;;;;;;4949101;29;20027;-94
2023/01/28 08:28:47;;;;;;;23.45;8.73;;;3.20;99.90;;;;;;4936213;29;20144;-94
2023/01/28 08:31:16;;;;;;;19.17;9.52;;;3.30;99.90;;;;;;4959704;29;20039;-95
2023/01/28 08:33:42;;;;;;;14.75;8.82;;;3.40;99.90;;;;;;4959859;28;20512;-95
2023/01/28 08:36:09;;;;;;;16.02;7.97;;;3.50;99.90;;;;;;4946785;29;20046;-94
2023/01/28 08:38:34;;;;;;;18.10;8.30;;;3.50;99.90;;;;;;5018689;28;20026;-95
2023/01/28 08:41:00;;;;;;;16.48;7.60;;;3.60;99.90;;;;;;5028570;28;20025;-94
2023/01/28 08:43:26;;;;;;;15.07;8.02;;;3.70;99.90;;;;;;5027328;28;20030;-95
2023/01/28 08:45:51;;;;;;;15.07;8.10;;;3.80;99.90;;;;;;5026618;28;20077;-96
2023/01/28 08:48:18;;;;;;;13.40;7.53;;;3.90;99.90;;;;;;5025996;28;20040;-95
2023/01/28 08:50:44;;;;;;;17.25;7.80;;;4.00;99.90;;;;;;5028292;28;20085;-96
2023/01/28 08:53:16;;;;;;;14.27;7.22;;;4.10;99.90;;;;;;5026214;28;20068;-96
2023/01/28 08:55:43;;;;;;;13.30;7.00;;;4.20;99.90;;;;;;5023660;28;20093;-93
2023/01/28 08:58:15;;;;;;;12.85;5.85;;;4.20;99.90;;;;;;5027470;28;20022;-94
2023/01/28 09:00:43;;;;;;;13.07;6.18;;;4.30;99.90;;;;;;5052833;28;20033;-94
2023/01/28 09:03:09;;;;;;;10.88;6.00;;;4.30;99.90;;;;;;5026176;28;20018;-94
2023/01/28 09:05:35;;;;;;;9.98;5.97;;;4.40;99.90;;;;;;5023531;28;20121;-94
2023/01/28 09:08:13;;;;;;;11.48;5.47;;;4.40;99.90;;;;;;5025661;28;20128;-94
2023/01/28 09:10:40;;;;;;;11.52;5.57;;;4.40;99.90;;;;;;5031115;28;20056;-93
2023/01/28 09:13:12;;;;;;;9.63;5.68;;;4.50;99.90;;;;;;5026997;28;20061;-94
2023/01/28 09:15:39;;;;;;;14.35;6.70;;;4.60;99.90;;;;;;5025970;28;20022;-94
2023/01/28 09:18:05;;;;;;;9.15;4.90;;;4.60;99.90;;;;;;5027248;28;20033;-93
2023/01/28 09:20:33;;;;;;;11.63;5.80;;;4.70;99.90;;;;;;5026321;28;20044;-94
2023/01/28 09:23:00;;;;;;;9.88;5.13;;;4.70;99.90;;;;;;5029023;28;20025;-94
2023/01/28 09:25:26;;;;;;;11.77;5.07;;;4.70;99.90;;;;;;5043557;28;20021;-94
2023/01/28 09:27:52;;;;;;;10.15;5.28;;;4.70;99.90;;;;;;5025223;28;20025;-94
2023/01/28 09:30:18;;;;;;;9.57;4.30;;;4.80;99.90;;;;;;5024741;28;20022;-94
2023/01/28 09:32:44;;;;;;;9.65;4.72;;;4.80;99.90;;;;;;5025081;28;20594;-94
2023/01/28 09:35:10;;;;;;;7.57;4.68;;;4.90;99.90;;;;;;5025114;28;20041;-94
2023/01/28 09:37:36;;;;;;;9.20;4.38;;;5.00;99.90;;;;;;5025213;28;20026;-95
2023/01/28 09:40:03;;;;;;;8.07;4.07;;;5.10;99.90;;;;;;5022111;28;20028;-94
2023/01/28 09:42:50;;;;;;;9.38;4.32;;;5.20;99.90;;;;;;5034961;28;20034;-94
2023/01/28 09:45:39;;;;;;;7.18;4.05;;;5.30;99.90;;;;;;5036019;28;20030;-94
2023/01/28 09:48:11;;;;;;;7.13;3.60;;;5.60;99.90;;;;;;5008423;28;20033;-95
2023/01/28 09:50:40;;;;;;;7.53;3.15;;;5.70;99.90;;;;;;5032350;28;20043;-96
2023/01/28 09:53:26;;;;;;;4.30;2.90;;;6.00;99.90;;;;;;5017975;28;20060;-96
2023/01/28 09:56:02;;;;;;;5.95;3.13;;;6.20;99.90;;;;;;5034305;28;20024;-95
2023/01/28 09:58:28;;;;;;;10.40;3.55;;;6.40;99.90;;;;;;5018511;28;20052;-95
2023/01/28 10:00:54;;;;;;;4.93;2.80;;;6.60;99.90;;;;;;5018105;28;20018;-94
2023/01/28 10:03:52;;;;;;;6.38;2.97;;;6.70;99.90;;;;;;5018836;28;20044;-96
2023/01/28 10:06:55;;;;;;;6.40;2.60;;;7.00;99.90;;;;;;5016914;28;20092;-94
2023/01/28 10:09:28;;;;;;;6.72;2.40;;;7.20;99.90;;;;;;5032544;28;20056;-95
2023/01/28 10:12:03;;;;;;;4.13;2.40;;;7.50;99.90;;;;;;5034364;28;20041;-95
2023/01/28 10:14:44;;;;;;;6.55;2.08;;;7.70;99.90;;;;;;5018499;28;20101;-94
2023/01/28 10:17:18;;;;;;;5.57;2.20;;;8.00;99.90;;;;;;5034109;28;20036;-94
2023/01/28 10:20:24;;;;;;;3.58;1.80;;;8.20;99.90;;;;;;5018932;28;20087;-94
2023/01/28 10:23:02;;;;;;;4.72;1.90;;;8.40;99.90;;;;;;5036981;28;20048;-94
2023/01/28 10:25:31;;;;;;;3.25;1.48;;;8.50;99.90;;;;;;5026573;28;20060;-93
2023/01/28 10:27:59;;;;;;;3.72;1.60;;;8.70;99.90;;;;;;5040477;28;20429;-94
2023/01/28 10:30:30;;;;;;;3.30;1.70;;;8.90;99.90;;;;;;5030672;28;20025;-93
2023/01/28 10:33:27;;;;;;;9.48;2.28;;;9.20;99.90;;;;;;5033445;28;20490;-94
2023/01/28 10:35:55;;;;;;;2.70;1.10;;;9.40;99.90;;;;;;5036491;28;20025;-93
2023/01/28 10:38:24;;;;;;;1.55;1.00;;;9.60;99.90;;;;;;5038287;28;20064;-94
2023/01/28 10:40:50;;;;;;;3.38;1.55;;;9.80;99.90;;;;;;5027162;28;20083;-93
2023/01/28 10:43:21;;;;;;;4.05;1.40;;;9.90;99.90;;;;;;5036477;28;20032;-93
2023/01/28 10:46:12;;;;;;;1.50;1.20;;;10.00;99.90;;;;;;5034515;28;20391;-94
2023/01/28 10:48:43;;;;;;;3.05;1.02;;;10.30;99.90;;;;;;5012456;28;20017;-93
2023/01/28 10:51:09;;;;;;;3.65;1.50;;;10.50;99.90;;;;;;5014458;28;20034;-95
2023/01/28 10:53:37;;;;;;;3.55;1.35;;;10.60;99.90;;;;;;5016533;28;20528;-95
2023/01/28 10:56:06;;;;;;;2.33;1.50;;;10.80;99.90;;;;;;5033345;28;20043;-95
2023/01/28 10:58:35;;;;;;;2.20;1.27;;;11.00;99.90;;;;;;5032647;28;20013;-96
2023/01/28 11:01:05;;;;;;;5.97;1.70;;;11.10;99.90;;;;;;5032665;28;20036;-95
2023/01/28 11:03:34;;;;;;;3.97;1.80;;;11.30;99.90;;;;;;5032592;28;20036;-95
2023/01/28 11:06:00;;;;;;;3.70;1.75;;;11.30;99.90;;;;;;5033050;28;20140;-94
2023/01/28 11:08:28;;;;;;;4.05;2.50;;;11.40;99.90;;;;;;5027520;28;20056;-93
2023/01/28 11:10:57;;;;;;;2.97;2.17;;;11.20;99.90;;;;;;5026553;28;20111;-95
2023/01/28 11:13:28;;;;;;;4.45;2.63;;;11.20;99.90;;;;;;5024281;28;20570;-94
2023/01/28 11:16:05;;;;;;;10.98;2.92;;;11.20;99.90;;;;;;5016670;28;20049;-94
2023/01/28 11:18:49;;;;;;;5.88;3.20;;;11.10;99.90;;;;;;5026936;28;20017;-94
2023/01/28 11:21:21;;;;;;;7.20;3.40;;;10.80;99.90;;;;;;5031881;28;20026;-94
2023/01/28 11:23:59;;;;;;;8.38;3.70;;;10.40;99.90;;;;;;5031287;28;20033;-94
2023/01/28 11:26:29;;;;;;;6.28;3.20;;;10.00;99.90;;;;;;4996703;28;20120;-93
2023/01/28 11:28:55;;;;;;;5.70;3.57;;;9.60;99.90;;;;;;4996980;28;20099;-95
2023/01/28 11:31:23;;;;;;;5.28;3.47;;;9.30;99.90;;;;;;4997949;28;20285;-93
2023/01/28 11:33:56;;;;;;;6.20;3.28;;;9.00;99.90;;;;;;5010581;28;20022;-93
2023/01/28 11:36:33;;;;;;;5.93;3.40;;;8.80;99.90;;;;;;4997125;28;20022;-96
2023/01/28 11:39:18;;;;;;;6.57;2.92;;;8.60;99.90;;;;;;5003270;28;20028;-93
2023/01/28 11:41:46;;;;;;;9.05;3.33;;;8.60;99.90;;;;;;5002667;28;20026;-94
2023/01/28 11:44:24;;;;;;;6.20;2.90;;;8.80;99.90;;;;;;4995806;28;20037;-93
2023/01/28 11:47:26;;;;;;;5.50;3.38;;;8.90;99.90;;;;;;4997248;28;20034;-94
2023/01/28 11:50:14;;;;;;;6.18;3.08;;;9.00;99.90;;;;;;4998232;28;20124;-93
2023/01/28 11:52:56;;;;;;;6.53;3.13;;;8.90;99.90;;;;;;4998035;28;20018;-95
2023/01/28 11:55:22;;;;;;;6.30;2.85;;;8.80;99.90;;;;;;4997992;28;20061;-94
2023/01/28 11:58:00;;;;;;;8.15;4.78;;;8.60;99.90;;;;;;4996904;28;20126;-94
2023/01/28 12:00:50;;;;;;;7.53;2.55;;;8.40;99.90;;;;;;4997201;28;20022;-92
2023/01/28 12:03:42;;;;;;;10.30;2.80;;;8.20;99.90;;;;;;4996059;28;20025;-94
2023/01/28 12:06:17;;;;;;;8.32;3.58;;;8.20;99.90;;;;;;4990478;28;20061;-94
2023/01/28 12:09:18;;;;;;;5.93;2.50;;;8.20;99.90;;;;;;4993314;28;20022;-95
2023/01/28 12:14:57;;;;;;;5.97;3.00;;;8.20;99.90;;;;;;5014629;28;20040;-94
2023/01/28 12:17:43;;;;;;;4.90;2.40;;;8.10;99.90;;;;;;5007351;28;20030;-95
2023/01/28 12:20:17;;;;;;;4.43;2.80;;;8.10;99.90;;;;;;5005504;28;20028;-94
2023/01/28 12:22:58;;;;;;;6.85;2.72;;;8.00;99.90;;;;;;5027135;28;20053;-95
2023/01/28 12:25:38;;;;;;;7.68;2.70;;;7.90;99.90;;;;;;5013484;28;20099;-94
2023/01/28 12:28:23;;;;;;;6.13;2.50;;;7.80;99.90;;;;;;5021677;28;20029;-94
2023/01/28 12:30:51;;;;;;;6.25;2.97;;;7.80;99.90;;;;;;5020537;28;20052;-94
2023/01/28 12:33:30;;;;;;;6.55;2.58;;;7.70;99.90;;;;;;5018227;28;20033;-93
2023/01/28 12:36:14;;;;;;;5.90;2.72;;;7.80;99.90;;;;;;5023126;28;20101;-94
2023/01/28 12:38:40;;;;;;;6.15;3.00;;;7.80;99.90;;;;;;5022761;28;20026;-95
2023/01/28 12:41:29;;;;;;;5.10;2.90;;;7.80;99.90;;;;;;5019405;28;20048;-94
2023/01/28 12:44:03;;;;;;;7.55;3.47;;;7.80;99.90;;;;;;5033159;28;20188;-93
2023/01/28 12:46:37;;;;;;;5.35;2.75;;;7.80;99.90;;;;;;5027490;28;20033;-93
2023/01/28 12:49:18;;;;;;;7.55;3.13;;;7.80;99.90;;;;;;5027087;28;20502;-93
2023/01/28 12:51:52;;;;;;;7.50;3.30;;;7.90;99.90;;;;;;5029789;28;20085;-92
2023/01/28 12:54:34;;;;;;;7.47;3.70;;;7.90;99.90;;;;;;5053845;28;20014;-93
2023/01/28 12:57:01;;;;;;;7.70;3.50;;;7.90;99.90;;;;;;5036599;28;20029;-92
2023/01/28 12:59:48;;;;;;;6.05;3.22;;;7.90;99.90;;;;;;5041617;28;20013;-92
2023/01/28 13:02:22;;;;;;;6.22;3.17;;;7.90;99.90;;;;;;5025679;28;20040;-94
2023/01/28 13:05:03;;;;;;;5.32;3.03;;;7.80;99.90;;;;;;5027092;28;20026;-94
2023/01/28 13:07:34;;;;;;;4.10;2.92;;;7.80;99.90;;;;;;5024562;28;20124;-94
2023/01/28 13:10:03;;;;;;;5.68;3.03;;;7.80;99.90;;;;;;5022678;28;20246;-93
2023/01/28 13:12:31;;;;;;;4.13;2.90;;;7.80;99.90;;;;;;5022920;28;20025;-95
2023/01/28 13:14:59;;;;;;;3.13;2.40;;;7.80;99.90;;;;;;5022779;28;20052;-95
2023/01/28 13:17:28;;;;;;;4.45;3.05;;;7.70;99.90;;;;;;5022533;28;20029;-92
2023/01/28 13:19:57;;;;;;;5.70;2.70;;;7.70;99.90;;;;;;5021651;28;20045;-93
2023/01/28 13:22:35;;;;;;;7.53;2.92;;;7.70;99.90;;;;;;5022628;28;20021;-94
2023/01/28 13:25:26;;;;;;;5.75;2.88;;;7.70;99.90;;;;;;5025156;28;20110;-94
2023/01/28 13:28:06;;;;;;;;;;;7.70;99.90;;;;;;5026105;28;20037;-94
2023/01/28 13:30:34;;;;;;;5.78;2.63;;;7.70;99.90;;;;;;5018030;28;19924;-93
2023/01/28 13:33:08;;;;;;;5.95;2.72;;;7.60;99.90;;;;;;5035009;28;20048;-95
2023/01/28 13:35:38;;;;;;;6.10;2.60;;;7.60;99.90;;;;;;5024765;28;20025;-94
2023/01/28 13:38:19;;;;;;;6.90;3.10;;;7.60;99.90;;;;;;5025577;28;20025;-92
2023/01/28 13:40:55;;;;;;;7.22;3.33;;;7.50;99.90;;;;;;5022485;28;20022;-95
2023/01/28 13:43:49;;;;;;;4.43;3.33;;;7.50;99.90;;;;;;5022252;28;20030;-95